McGregor, TX

7:21 PM CDT on June 24, 2017 (GMT -0500)
McGregor Executive

Weather History for KPWG - June, 2013

Change the Weather History Date:

Tuesday, June 25, 2013

  Actual Average Record
Temperature  
Mean Temperature 88 °F -  
Max Temperature 100 °F 87 °F 104 °F (2012)
Min Temperature 75 °F 69 °F 66 °F (2001)
Cooling Degree Days 22    
Growing Degree Days 38 (Base 50)    
Moisture  
Dew Point 65 °F    
Average Humidity 51    
Maximum Humidity 83    
Minimum Humidity 27    
Precipitation  
Precipitation 0.00 in - - ()
Sea Level Pressure  
Sea Level Pressure 29.95 in    
Wind  
Wind Speed 15 mph (South)    
Max Wind Speed 24 mph    
Max Gust Speed 31 mph    
Visibility 10 miles    
Events      
Averages and records for this station are not official NWS values.
T = Trace of Precipitation, MM = Missing Value Source: NWS Daily Summary

Daily Weather History Graph

Daily Weather History Graph

Search for Another Location

Airport or City:

Trip Planner

Search our weather history database for the weather conditions in past years. The results will help you decide how hot, cold, wet, or windy it might be!

Date:

Astronomy

Jun. 25, 2013 Rise Set
Actual Time 6:26 AM CDT 8:37 PM CDT
Civil Twilight 5:58 AM CDT 9:05 PM CDT
Nautical Twilight 5:23 AM CDT 9:40 PM CDT
Astronomical Twilight 4:46 AM CDT 10:17 PM CDT
Moon 10:36 PM CDT 8:57 AM CDT
Length of Visible Light 15h 07m
Length of Day
14h 11m
Waning Gibbous, 92% of the Moon is Illuminated
Jun 25
Waning Gibbous
Jun 29
Last Quarter
Jul 8
New
Jul 15
First Quarter
Jul 22
Full

Hourly Weather History & Observations

Time (CDT) Temp. Heat Index Dew Point Humidity Pressure Visibility Wind Dir Wind Speed Gust Speed Precip Events Conditions
12:15 AM 82.4 °F 84.6 °F 66.2 °F 58% 29.99 in 10.0 mi South 18.4 mph - N/A   Clear
12:35 AM 82.4 °F 84.6 °F 66.2 °F 58% 30.00 in 10.0 mi South 16.1 mph 24.2 mph N/A   Clear
12:55 AM 80.6 °F 82.7 °F 66.2 °F 61% 30.00 in 10.0 mi South 16.1 mph - N/A   Clear
1:15 AM 80.6 °F 82.7 °F 66.2 °F 61% 30.00 in 10.0 mi South 13.8 mph - N/A   Clear
1:35 AM 80.6 °F 82.7 °F 66.2 °F 61% 30.01 in 10.0 mi South 12.7 mph - N/A   Clear
1:55 AM 78.8 °F - 66.2 °F 65% 30.01 in 10.0 mi South 11.5 mph - N/A   Clear
2:15 AM 78.8 °F - 66.2 °F 65% 30.01 in 10.0 mi South 12.7 mph - N/A   Clear
2:35 AM 78.8 °F - 66.2 °F 65% 30.01 in 10.0 mi SSE 12.7 mph - N/A   Clear
2:55 AM 78.8 °F - 66.2 °F 65% 30.01 in 10.0 mi South 11.5 mph - N/A   Clear
3:15 AM 77.0 °F - 66.2 °F 69% 30.01 in 10.0 mi SSE 15.0 mph - N/A   Clear
3:35 AM 77.0 °F - 66.2 °F 69% 30.00 in 10.0 mi SSE 13.8 mph - N/A   Clear
3:55 AM 77.0 °F - 66.2 °F 69% 29.99 in 10.0 mi SSE 13.8 mph - N/A   Partly Cloudy
4:15 AM 77.0 °F - 68.0 °F 74% 29.99 in 10.0 mi South 13.8 mph 20.7 mph N/A   Partly Cloudy
4:35 AM 75.2 °F - 68.0 °F 78% 29.99 in 10.0 mi South 11.5 mph 18.4 mph N/A   Partly Cloudy
4:55 AM 75.2 °F - 68.0 °F 78% 29.99 in 10.0 mi South 10.4 mph - N/A   Clear
5:15 AM 75.2 °F - 68.0 °F 78% 29.99 in 10.0 mi South 11.5 mph - N/A   Clear
5:35 AM 75.2 °F - 68.0 °F 78% 30.00 in 10.0 mi South 11.5 mph - N/A   Clear
5:55 AM 75.2 °F - 68.0 °F 78% 30.00 in 10.0 mi South 10.4 mph - N/A   Partly Cloudy
6:15 AM 75.2 °F - 68.0 °F 78% 30.00 in 10.0 mi South 8.1 mph - N/A   Scattered Clouds
6:35 AM 75.2 °F - 68.0 °F 78% 30.00 in 10.0 mi South 8.1 mph - N/A   Partly Cloudy
6:55 AM 75.2 °F - 69.8 °F 83% 30.00 in 10.0 mi South 8.1 mph - N/A   Mostly Cloudy
7:15 AM 75.2 °F - 69.8 °F 83% 30.00 in 10.0 mi South 9.2 mph - N/A   Scattered Clouds
7:35 AM 75.2 °F - 69.8 °F 83% 30.01 in 10.0 mi South 9.2 mph - N/A   Clear
7:55 AM 78.8 °F - 69.8 °F 74% 30.02 in 10.0 mi South 11.5 mph - N/A   Clear
8:15 AM 78.8 °F - 69.8 °F 74% 30.02 in 10.0 mi South 15.0 mph - N/A   Partly Cloudy
8:35 AM 80.6 °F 83.9 °F 69.8 °F 70% 30.02 in 10.0 mi South 20.7 mph 26.5 mph N/A   Partly Cloudy
8:55 AM 80.6 °F 83.9 °F 69.8 °F 70% 30.02 in 10.0 mi South 16.1 mph 23.0 mph N/A   Mostly Cloudy
9:15 AM 82.4 °F 86.3 °F 69.8 °F 66% 30.02 in 10.0 mi South 15.0 mph 25.3 mph N/A   Scattered Clouds
9:35 AM 84.2 °F 88.4 °F 69.8 °F 62% 30.01 in 10.0 mi South 20.7 mph 26.5 mph N/A   Partly Cloudy
9:55 AM 86.0 °F 89.4 °F 68.0 °F 55% 30.01 in 10.0 mi South 18.4 mph 26.5 mph N/A   Scattered Clouds
10:15 AM 87.8 °F 91.4 °F 68.0 °F 52% 30.01 in 10.0 mi South 18.4 mph 27.6 mph N/A   Partly Cloudy
10:35 AM 87.8 °F 90.4 °F 66.2 °F 49% 30.01 in 10.0 mi South 20.7 mph 28.8 mph N/A   Clear
10:55 AM 87.8 °F 90.4 °F 66.2 °F 49% 30.00 in 10.0 mi SSW 19.6 mph 27.6 mph N/A   Clear
11:15 AM 89.6 °F 92.2 °F 66.2 °F 46% 30.00 in 10.0 mi South 23.0 mph 27.6 mph N/A   Partly Cloudy
11:35 AM 89.6 °F 92.2 °F 66.2 °F 46% 29.99 in 10.0 mi SSW 20.7 mph 25.3 mph N/A   Partly Cloudy
11:55 AM 91.4 °F 94.0 °F 66.2 °F 43% 29.99 in 10.0 mi South 16.1 mph 28.8 mph N/A   Clear
12:15 PM 91.4 °F 94.0 °F 66.2 °F 43% 29.99 in 10.0 mi South 19.6 mph 25.3 mph N/A   Partly Cloudy
12:35 PM 91.4 °F 94.0 °F 66.2 °F 43% 29.98 in 10.0 mi SSW 16.1 mph 27.6 mph N/A   Partly Cloudy
12:55 PM 93.2 °F 96.2 °F 66.2 °F 41% 29.97 in 10.0 mi South 21.9 mph 27.6 mph N/A   Partly Cloudy
1:15 PM 93.2 °F 96.2 °F 66.2 °F 41% 29.96 in 10.0 mi South 20.7 mph 25.3 mph N/A   Partly Cloudy
1:35 PM 93.2 °F 96.2 °F 66.2 °F 41% 29.96 in 10.0 mi South 19.6 mph 25.3 mph N/A   Partly Cloudy
1:55 PM 95.0 °F 98.5 °F 66.2 °F 39% 29.96 in 10.0 mi South 16.1 mph 31.1 mph N/A   Partly Cloudy
2:15 PM 96.8 °F 100.7 °F 66.2 °F 37% 29.94 in 10.0 mi SSW 15.0 mph 24.2 mph N/A   Partly Cloudy
2:35 PM 96.8 °F 100.7 °F 66.2 °F 37% 29.93 in 10.0 mi South 21.9 mph 27.6 mph N/A   Clear
2:55 PM 96.8 °F 99.0 °F 64.4 °F 34% 29.92 in 10.0 mi South 12.7 mph 23.0 mph N/A   Clear
3:15 PM 98.6 °F 101.0 °F 64.4 °F 32% 29.91 in 10.0 mi South 23.0 mph 29.9 mph N/A   Clear
3:35 PM 98.6 °F 101.0 °F 64.4 °F 32% 29.91 in 10.0 mi South 18.4 mph 25.3 mph N/A   Clear
3:55 PM 98.6 °F 100.0 °F 62.6 °F 30% 29.90 in 10.0 mi South 24.2 mph 31.1 mph N/A   Clear
4:15 PM 98.6 °F 100.0 °F 62.6 °F 30% 29.89 in 10.0 mi South 19.6 mph 27.6 mph N/A   Clear
4:35 PM 100.4 °F 102.4 °F 62.6 °F 29% 29.89 in 10.0 mi SSW 16.1 mph 25.3 mph N/A   Clear
4:55 PM 100.4 °F 102.4 °F 62.6 °F 29% 29.88 in 10.0 mi South 18.4 mph 27.6 mph N/A   Clear
5:15 PM 100.4 °F 102.4 °F 62.6 °F 29% 29.87 in 10.0 mi South 18.4 mph 26.5 mph N/A   Clear
5:35 PM 100.4 °F 102.4 °F 62.6 °F 29% 29.87 in 10.0 mi South 18.4 mph 26.5 mph N/A   Clear
5:55 PM 100.4 °F 101.3 °F 60.8 °F 27% 29.86 in 10.0 mi South 24.2 mph 27.6 mph N/A   Clear
6:15 PM 98.6 °F 99.4 °F 60.8 °F 29% 29.86 in 10.0 mi South 16.1 mph 26.5 mph N/A   Clear
6:35 PM 98.6 °F 99.4 °F 60.8 °F 29% 29.86 in 10.0 mi South 17.3 mph 25.3 mph N/A   Clear
6:55 PM 98.6 °F 99.4 °F 60.8 °F 29% 29.85 in 10.0 mi South 16.1 mph 24.2 mph N/A   Clear
7:15 PM 96.8 °F 97.1 °F 60.8 °F 30% 29.85 in 10.0 mi South 20.7 mph 26.5 mph N/A   Clear
7:35 PM 96.8 °F 97.1 °F 60.8 °F 30% 29.86 in 10.0 mi South 13.8 mph 25.3 mph N/A   Clear
7:55 PM 95.0 °F 95.2 °F 60.8 °F 32% 29.86 in 10.0 mi South 13.8 mph 20.7 mph N/A   Clear
8:15 PM 93.2 °F 93.3 °F 60.8 °F 34% 29.86 in 10.0 mi SSE 16.1 mph - N/A   Clear
8:35 PM 91.4 °F 91.4 °F 60.8 °F 36% 29.87 in 10.0 mi SSE 15.0 mph 20.7 mph N/A   Clear
8:55 PM 91.4 °F 91.4 °F 60.8 °F 36% 29.87 in 10.0 mi South 15.0 mph 21.9 mph N/A   Clear
9:15 PM 89.6 °F 89.5 °F 60.8 °F 38% 29.87 in 10.0 mi South 13.8 mph - N/A   Clear
9:35 PM 89.6 °F 89.5 °F 60.8 °F 38% 29.88 in 10.0 mi South 13.8 mph - N/A   Clear
9:55 PM 87.8 °F 87.6 °F 60.8 °F 40% 29.89 in 10.0 mi South 11.5 mph - N/A   Clear
10:15 PM 86.0 °F 85.4 °F 59.0 °F 40% 29.90 in 10.0 mi South 15.0 mph - N/A   Clear
10:35 PM 86.0 °F 85.4 °F 59.0 °F 40% 29.91 in 10.0 mi South 16.1 mph 20.7 mph N/A   Clear
10:55 PM 86.0 °F 84.9 °F 57.2 °F 37% 29.91 in 10.0 mi South 19.6 mph 25.3 mph N/A   Clear
11:15 PM 84.2 °F 83.5 °F 57.2 °F 40% 29.91 in 10.0 mi South 18.4 mph 26.5 mph N/A   Clear
11:35 PM 84.2 °F 83.8 °F 59.0 °F 42% 29.91 in 10.0 mi South 15.0 mph - N/A   Clear
11:55 PM 84.2 °F 83.8 °F 59.0 °F 42% 29.93 in 10.0 mi South 15.0 mph 21.9 mph N/A   Clear